Pilot Vessel Akarana — ZMT2938 — position and weather

sailwx.info

Track history (hours):
 
Tides and Currents Weather Stations Pressure Air Temp Water Temp Dewpoint Dewpoint Depression Visibility Wind Speed Wind Dir Waves Ship Positions

Pilot Vessel Akarana

Last reported at 2014-Sep-15 07:27 UTC. Time now 2014-Sep-15 09:31 UTC.
Position S 36°51' E 174°47'.

Length 15 m; draft 1.6 m.

Type: Pilot. MMSI: 512000344.

Date/timePositionNaut miles runAvg speedWind from/ knotsBaromVisibWave heightAir tempDewpointWater temp
2014-Sep-15 07:27S 36°51' E 174°47'3 3.9
2014-Sep-15 06:33S 36°47' E 174°49'3 0.2
2014-Sep-14 09:28S 36°50' E 174°47'3 2.9
2014-Sep-14 08:33S 36°48' E 174°48'0 0.1
2014-Sep-14 05:23S 36°48' E 174°48'1 0.3
2014-Sep-14 03:09S 36°48' E 174°47'3 5.5
2014-Sep-14 02:33S 36°45' E 174°50'3 2.5
2014-Sep-14 01:27S 36°47' E 174°48'4 0.9
2014-Sep-13 21:34S 36°51' E 174°47'0 0.2
2014-Sep-13 20:23S 36°50' E 174°47'3 1.1
2014-Sep-13 17:19S 36°48' E 174°49'2 0.2
2014-Sep-13 08:33S 36°46' E 174°49'0 0.3
2014-Sep-13 07:15S 36°46' E 174°50'3 3.7
2014-Sep-13 06:33S 36°48' E 174°49'3 0.3
2014-Sep-12 18:33S 36°51' E 174°47'4 0.5
2014-Sep-12 09:27S 36°47' E 174°49'1 1.3
2014-Sep-12 08:27S 36°48' E 174°49'5 2.4
2014-Sep-12 06:32S 36°43' E 174°50'5 1.1
2014-Sep-12 02:32S 36°48' E 174°49'3 1.4
2014-Sep-12 00:19S 36°50' E 174°47'7 1.1
2014-Sep-11 17:33S 36°44' E 174°51'7 1.5
2014-Sep-11 12:31S 36°50' E 174°47'4 1.0
2014-Sep-11 08:33S 36°47' E 174°48'4 0.4
2014-Sep-11 00:33S 36°50' E 174°48'7 6.7
2014-Sep-10 23:33S 36°44' E 174°51'2 1.1
2014-Sep-10 21:30S 36°46' E 174°50'5 4.6
2014-Sep-10 20:21S 36°50' E 174°46'0 0.2
2014-Sep-10 18:33S 36°50' E 174°46'3 2.2
2014-Sep-10 17:12S 36°48' E 174°49'2 0.3
2014-Sep-10 09:19S 36°50' E 174°48'1 0.5
2014-Sep-10 07:29S 36°51' E 174°47'3 0.5
2014-Sep-10 01:25S 36°48' E 174°49'0 0.1
2014-Sep-09 20:32S 36°48' E 174°49'1 0.3
2014-Sep-09 17:32S 36°47' E 174°49'1 0.2
2014-Sep-09 09:28S 36°48' E 174°49'2 1.4
2014-Sep-09 08:19S 36°47' E 174°49'1 0.3
2014-Sep-09 04:08S 36°48' E 174°49'3 4.8
2014-Sep-09 03:26S 36°51' E 174°46'1 0.1
2014-Sep-08 18:33S 36°51' E 174°47'3 2.3
2014-Sep-08 17:12S 36°48' E 174°49'3 3.7
2014-Sep-08 16:22S 36°51' E 174°47'0 0.0
2014-Sep-08 15:12S 36°51' E 174°47'0 0.0
2014-Sep-08 14:31S 36°51' E 174°47'0 0.0
2014-Sep-08 11:23S 36°51' E 174°47'0 0.0
2014-Sep-08 10:13S 36°51' E 174°47'0 0.0
2014-Sep-08 09:04S 36°51' E 174°47'0 0.0
2014-Sep-08 07:32S 36°51' E 174°47'3 2.8
2014-Sep-08 06:22S 36°48' E 174°49'2 0.4
2014-Sep-08 02:33S 36°46' E 174°49'5 0.5
2014-Sep-07 17:23S 36°51' E 174°47'5 0.7
2014-Sep-07 09:33S 36°46' E 174°50'5 4.9
2014-Sep-07 08:27S 36°51' E 174°47'3 3.3
2014-Sep-07 07:33S 36°49' E 174°50'1 0.3
2014-Sep-07 02:29S 36°48' E 174°49'2 0.2
2014-Sep-06 18:09S 36°49' E 174°49'3 0.7
2014-Sep-06 13:33S 36°46' E 174°49'5 1.0
2014-Sep-06 09:09S 36°50' E 174°47'3 5.6
2014-Sep-06 08:33S 36°47' E 174°48'1 0.4
2014-Sep-06 05:32S 36°46' E 174°49'2 0.7
2014-Sep-06 02:27S 36°48' E 174°49'3 1.5
2014-Sep-06 00:33S 36°51' E 174°47'0 0.0
2014-Sep-05 22:20S 36°51' E 174°47'5 5.8
2014-Sep-05 21:32S 36°46' E 174°49'2 0.9
2014-Sep-05 19:26S 36°48' E 174°49'2 0.2
2014-Sep-05 08:33S 36°46' E 174°49'  
Track history (hours):
 
Tides and Currents Weather Stations Pressure Air Temp Water Temp Dewpoint Dewpoint Depression Visibility Wind Speed Wind Dir Waves Ship Positions

Pilot Vessel Akarana

Last reported at 2014-Sep-15 07:27 UTC. Time now 2014-Sep-15 09:31 UTC.
Position S 36°51' E 174°47'.

Length 15 m; draft 1.6 m.

Type: Pilot. MMSI: 512000344.

Date/timePositionNaut miles runAvg speedWind from/ knotsBaromVisibWave heightAir tempDewpointWater temp
2014-Sep-15 07:27S 36°51' E 174°47'3 3.9
2014-Sep-15 06:33S 36°47' E 174°49'3 0.2
2014-Sep-14 09:28S 36°50' E 174°47'3 2.9
2014-Sep-14 08:33S 36°48' E 174°48'0 0.1
2014-Sep-14 05:23S 36°48' E 174°48'1 0.3
2014-Sep-14 03:09S 36°48' E 174°47'3 5.5
2014-Sep-14 02:33S 36°45' E 174°50'3 2.5
2014-Sep-14 01:27S 36°47' E 174°48'4 0.9
2014-Sep-13 21:34S 36°51' E 174°47'0 0.2
2014-Sep-13 20:23S 36°50' E 174°47'3 1.1
2014-Sep-13 17:19S 36°48' E 174°49'2 0.2
2014-Sep-13 08:33S 36°46' E 174°49'0 0.3
2014-Sep-13 07:15S 36°46' E 174°50'3 3.7
2014-Sep-13 06:33S 36°48' E 174°49'3 0.3
2014-Sep-12 18:33S 36°51' E 174°47'4 0.5
2014-Sep-12 09:27S 36°47' E 174°49'1 1.3
2014-Sep-12 08:27S 36°48' E 174°49'5 2.4
2014-Sep-12 06:32S 36°43' E 174°50'5 1.1
2014-Sep-12 02:32S 36°48' E 174°49'3 1.4
2014-Sep-12 00:19S 36°50' E 174°47'7 1.1
2014-Sep-11 17:33S 36°44' E 174°51'7 1.5
2014-Sep-11 12:31S 36°50' E 174°47'4 1.0
2014-Sep-11 08:33S 36°47' E 174°48'4 0.4
2014-Sep-11 00:33S 36°50' E 174°48'7 6.7
2014-Sep-10 23:33S 36°44' E 174°51'2 1.1
2014-Sep-10 21:30S 36°46' E 174°50'5 4.6
2014-Sep-10 20:21S 36°50' E 174°46'0 0.2
2014-Sep-10 18:33S 36°50' E 174°46'3 2.2
2014-Sep-10 17:12S 36°48' E 174°49'2 0.3
2014-Sep-10 09:19S 36°50' E 174°48'1 0.5
2014-Sep-10 07:29S 36°51' E 174°47'3 0.5
2014-Sep-10 01:25S 36°48' E 174°49'0 0.1
2014-Sep-09 20:32S 36°48' E 174°49'1 0.3
2014-Sep-09 17:32S 36°47' E 174°49'1 0.2
2014-Sep-09 09:28S 36°48' E 174°49'2 1.4
2014-Sep-09 08:19S 36°47' E 174°49'1 0.3
2014-Sep-09 04:08S 36°48' E 174°49'3 4.8
2014-Sep-09 03:26S 36°51' E 174°46'1 0.1
2014-Sep-08 18:33S 36°51' E 174°47'3 2.3
2014-Sep-08 17:12S 36°48' E 174°49'3 3.7
2014-Sep-08 16:22S 36°51' E 174°47'0 0.0
2014-Sep-08 15:12S 36°51' E 174°47'0 0.0
2014-Sep-08 14:31S 36°51' E 174°47'0 0.0
2014-Sep-08 11:23S 36°51' E 174°47'0 0.0
2014-Sep-08 10:13S 36°51' E 174°47'0 0.0
2014-Sep-08 09:04S 36°51' E 174°47'0 0.0
2014-Sep-08 07:32S 36°51' E 174°47'3 2.8
2014-Sep-08 06:22S 36°48' E 174°49'2 0.4
2014-Sep-08 02:33S 36°46' E 174°49'5 0.5
2014-Sep-07 17:23S 36°51' E 174°47'5 0.7
2014-Sep-07 09:33S 36°46' E 174°50'5 4.9
2014-Sep-07 08:27S 36°51' E 174°47'3 3.3
2014-Sep-07 07:33S 36°49' E 174°50'1 0.3
2014-Sep-07 02:29S 36°48' E 174°49'2 0.2
2014-Sep-06 18:09S 36°49' E 174°49'3 0.7
2014-Sep-06 13:33S 36°46' E 174°49'5 1.0
2014-Sep-06 09:09S 36°50' E 174°47'3 5.6
2014-Sep-06 08:33S 36°47' E 174°48'1 0.4
2014-Sep-06 05:32S 36°46' E 174°49'2 0.7
2014-Sep-06 02:27S 36°48' E 174°49'3 1.5
2014-Sep-06 00:33S 36°51' E 174°47'0 0.0
2014-Sep-05 22:20S 36°51' E 174°47'5 5.8
2014-Sep-05 21:32S 36°46' E 174°49'2 0.9
2014-Sep-05 19:26S 36°48' E 174°49'2 0.2
2014-Sep-05 08:33S 36°46' E 174°49'  

Dump ship's entire track history